sensor_id;sensor_type;location;lat;lon;timestamp;temperature;humidity
41630;DHT22;27322;49.488;8.480;2023-03-01T00:02:02;3.80;94.30
41630;DHT22;27322;49.488;8.480;2023-03-01T00:04:30;3.80;94.20
41630;DHT22;27322;49.488;8.480;2023-03-01T00:06:56;3.90;94.30
41630;DHT22;27322;49.488;8.480;2023-03-01T00:09:21;3.80;94.50
41630;DHT22;27322;49.488;8.480;2023-03-01T00:11:47;3.80;93.90
41630;DHT22;27322;49.488;8.480;2023-03-01T00:14:13;3.80;94.20
41630;DHT22;27322;49.488;8.480;2023-03-01T00:16:40;3.80;94.30
41630;DHT22;27322;49.488;8.480;2023-03-01T00:19:08;3.80;94.60
41630;DHT22;27322;49.488;8.480;2023-03-01T00:21:34;3.70;94.50
41630;DHT22;27322;49.488;8.480;2023-03-01T00:24:01;3.70;95.00
41630;DHT22;27322;49.488;8.480;2023-03-01T00:26:27;3.70;95.00
41630;DHT22;27322;49.488;8.480;2023-03-01T00:28:53;3.70;95.10
41630;DHT22;27322;49.488;8.480;2023-03-01T00:31:22;3.70;95.00
41630;DHT22;27322;49.488;8.480;2023-03-01T00:33:52;3.70;95.00
41630;DHT22;27322;49.488;8.480;2023-03-01T00:36:22;3.70;95.20
41630;DHT22;27322;49.488;8.480;2023-03-01T00:38:48;3.70;95.40
41630;DHT22;27322;49.488;8.480;2023-03-01T00:41:15;3.70;95.50
41630;DHT22;27322;49.488;8.480;2023-03-01T00:43:42;3.70;95.40
41630;DHT22;27322;49.488;8.480;2023-03-01T00:46:10;3.70;95.80
41630;DHT22;27322;49.488;8.480;2023-03-01T00:48:37;3.60;95.60
41630;DHT22;27322;49.488;8.480;2023-03-01T00:51:07;3.70;96.00
41630;DHT22;27322;49.488;8.480;2023-03-01T00:53:34;3.60;95.90
41630;DHT22;27322;49.488;8.480;2023-03-01T00:56:00;3.60;95.90
41630;DHT22;27322;49.488;8.480;2023-03-01T00:58:26;3.60;96.10
41630;DHT22;27322;49.488;8.480;2023-03-01T01:00:52;3.60;96.20
41630;DHT22;27322;49.488;8.480;2023-03-01T01:03:18;3.60;96.30
41630;DHT22;27322;49.488;8.480;2023-03-01T01:05:44;3.60;96.10
41630;DHT22;27322;49.488;8.480;2023-03-01T01:08:09;3.50;96.60
41630;DHT22;27322;49.488;8.480;2023-03-01T01:10:35;3.50;96.40
41630;DHT22;27322;49.488;8.480;2023-03-01T01:13:01;3.50;96.30
41630;DHT22;27322;49.488;8.480;2023-03-01T01:15:26;3.50;96.30
41630;DHT22;27322;49.488;8.480;2023-03-01T01:17:52;3.50;96.20
41630;DHT22;27322;49.488;8.480;2023-03-01T01:20:18;3.40;96.20
41630;DHT22;27322;49.488;8.480;2023-03-01T01:22:43;3.40;96.40
41630;DHT22;27322;49.488;8.480;2023-03-01T01:25:09;3.40;96.50
41630;DHT22;27322;49.488;8.480;2023-03-01T01:27:35;3.40;96.70
41630;DHT22;27322;49.488;8.480;2023-03-01T01:30:01;3.30;96.60
41630;DHT22;27322;49.488;8.480;2023-03-01T01:32:27;3.30;96.70
41630;DHT22;27322;49.488;8.480;2023-03-01T01:34:52;3.30;96.80
41630;DHT22;27322;49.488;8.480;2023-03-01T01:37:18;3.30;96.90
41630;DHT22;27322;49.488;8.480;2023-03-01T01:39:43;3.20;97.50
41630;DHT22;27322;49.488;8.480;2023-03-01T01:42:15;3.20;97.40
41630;DHT22;27322;49.488;8.480;2023-03-01T01:44:44;3.20;97.30
41630;DHT22;27322;49.488;8.480;2023-03-01T01:47:19;3.20;97.40
41630;DHT22;27322;49.488;8.480;2023-03-01T01:49:52;3.20;97.60
41630;DHT22;27322;49.488;8.480;2023-03-01T01:52:25;3.10;98.00
41630;DHT22;27322;49.488;8.480;2023-03-01T01:55:13;3.10;98.00
41630;DHT22;27322;49.488;8.480;2023-03-01T01:57:49;3.10;98.30
41630;DHT22;27322;49.488;8.480;2023-03-01T02:00:23;3.10;98.30
41630;DHT22;27322;49.488;8.480;2023-03-01T02:02:54;3.10;98.70
41630;DHT22;27322;49.488;8.480;2023-03-01T02:05:34;3.10;99.00
41630;DHT22;27322;49.488;8.480;2023-03-01T02:08:02;3.20;99.10
41630;DHT22;27322;49.488;8.480;2023-03-01T02:10:28;3.10;99.20
41630;DHT22;27322;49.488;8.480;2023-03-01T02:12:54;3.20;99.30
41630;DHT22;27322;49.488;8.480;2023-03-01T02:15:22;3.20;99.80
41630;DHT22;27322;49.488;8.480;2023-03-01T02:17:48;3.20;99.80
41630;DHT22;27322;49.488;8.480;2023-03-01T02:22:52;3.20;99.80
41630;DHT22;27322;49.488;8.480;2023-03-01T02:25:32;3.20;99.80
41630;DHT22;27322;49.488;8.480;2023-03-01T02:28:32;3.20;99.80
41630;DHT22;27322;49.488;8.480;2023-03-01T02:30:59;3.20;99.50
41630;DHT22;27322;49.488;8.480;2023-03-01T02:33:44;3.10;99.80
41630;DHT22;27322;49.488;8.480;2023-03-01T02:36:15;3.20;99.60
41630;DHT22;27322;49.488;8.480;2023-03-01T02:38:42;3.20;99.50
41630;DHT22;27322;49.488;8.480;2023-03-01T02:41:11;3.20;99.50
41630;DHT22;27322;49.488;8.480;2023-03-01T02:43:38;3.10;99.50
41630;DHT22;27322;49.488;8.480;2023-03-01T02:46:07;3.10;99.60
41630;DHT22;27322;49.488;8.480;2023-03-01T02:48:59;3.10;99.70
41630;DHT22;27322;49.488;8.480;2023-03-01T02:54:33;3.10;99.90
41630;DHT22;27322;49.488;8.480;2023-03-01T02:57:02;3.10;99.90
41630;DHT22;27322;49.488;8.480;2023-03-01T02:59:31;3.10;99.90
41630;DHT22;27322;49.488;8.480;2023-03-01T03:02:00;3.10;99.90
41630;DHT22;27322;49.488;8.480;2023-03-01T03:04:26;3.10;99.90
41630;DHT22;27322;49.488;8.480;2023-03-01T03:06:52;3.00;99.90
41630;DHT22;27322;49.488;8.480;2023-03-01T03:09:18;3.00;99.90
41630;DHT22;27322;49.488;8.480;2023-03-01T03:11:44;3.00;99.90
41630;DHT22;27322;49.488;8.480;2023-03-01T03:14:12;3.00;99.90
41630;DHT22;27322;49.488;8.480;2023-03-01T03:16:47;3.00;99.90
41630;DHT22;27322;49.488;8.480;2023-03-01T03:19:13;3.00;99.90
41630;DHT22;27322;49.488;8.480;2023-03-01T03:21:39;3.00;99.90
41630;DHT22;27322;49.488;8.480;2023-03-01T03:24:05;3.00;99.90
41630;DHT22;27322;49.488;8.480;2023-03-01T03:26:31;3.00;99.90
41630;DHT22;27322;49.488;8.480;2023-03-01T03:28:57;2.90;99.90
41630;DHT22;27322;49.488;8.480;2023-03-01T03:31:23;2.90;99.90
41630;DHT22;27322;49.488;8.480;2023-03-01T03:33:48;2.80;99.90
41630;DHT22;27322;49.488;8.480;2023-03-01T03:36:19;2.80;99.90
41630;DHT22;27322;49.488;8.480;2023-03-01T03:38:46;2.80;99.90
41630;DHT22;27322;49.488;8.480;2023-03-01T03:41:12;2.80;99.90
41630;DHT22;27322;49.488;8.480;2023-03-01T03:43:39;2.80;99.90
41630;DHT22;27322;49.488;8.480;2023-03-01T03:46:06;2.80;99.90
41630;DHT22;27322;49.488;8.480;2023-03-01T03:48:37;2.80;99.90
41630;DHT22;27322;49.488;8.480;2023-03-01T03:51:03;2.70;99.90
41630;DHT22;27322;49.488;8.480;2023-03-01T03:53:31;2.70;99.90
41630;DHT22;27322;49.488;8.480;2023-03-01T03:55:57;2.70;99.90
41630;DHT22;27322;49.488;8.480;2023-03-01T03:58:25;2.70;99.90
41630;DHT22;27322;49.488;8.480;2023-03-01T04:00:53;2.60;99.90
41630;DHT22;27322;49.488;8.480;2023-03-01T04:03:19;2.60;99.90
41630;DHT22;27322;49.488;8.480;2023-03-01T04:05:46;2.60;99.90
41630;DHT22;27322;49.488;8.480;2023-03-01T04:08:13;2.60;99.90
41630;DHT22;27322;49.488;8.480;2023-03-01T04:10:39;2.60;99.90
41630;DHT22;27322;49.488;8.480;2023-03-01T04:13:06;2.50;99.90
41630;DHT22;27322;49.488;8.480;2023-03-01T04:15:33;2.50;99.90
41630;DHT22;27322;49.488;8.480;2023-03-01T04:17:59;2.50;99.90
41630;DHT22;27322;49.488;8.480;2023-03-01T04:20:28;2.50;99.90
41630;DHT22;27322;49.488;8.480;2023-03-01T04:23:04;2.50;99.90
41630;DHT22;27322;49.488;8.480;2023-03-01T04:25:44;2.50;99.90
41630;DHT22;27322;49.488;8.480;2023-03-01T04:28:10;2.50;99.90
41630;DHT22;27322;49.488;8.480;2023-03-01T04:30:37;2.50;99.90
41630;DHT22;27322;49.488;8.480;2023-03-01T04:33:07;2.50;99.90
41630;DHT22;27322;49.488;8.480;2023-03-01T04:35:34;2.50;99.90
41630;DHT22;27322;49.488;8.480;2023-03-01T04:38:00;2.50;99.90
41630;DHT22;27322;49.488;8.480;2023-03-01T04:40:26;2.50;99.90
41630;DHT22;27322;49.488;8.480;2023-03-01T04:42:52;2.50;99.90
41630;DHT22;27322;49.488;8.480;2023-03-01T04:45:17;2.50;99.90
41630;DHT22;27322;49.488;8.480;2023-03-01T04:47:45;2.50;99.90
41630;DHT22;27322;49.488;8.480;2023-03-01T04:50:14;2.50;99.90
41630;DHT22;27322;49.488;8.480;2023-03-01T04:52:40;2.50;99.90
41630;DHT22;27322;49.488;8.480;2023-03-01T04:55:06;2.50;99.90
41630;DHT22;27322;49.488;8.480;2023-03-01T04:57:32;2.50;99.90
41630;DHT22;27322;49.488;8.480;2023-03-01T04:59:58;2.60;99.90
41630;DHT22;27322;49.488;8.480;2023-03-01T05:02:24;2.60;99.90
41630;DHT22;27322;49.488;8.480;2023-03-01T05:04:49;2.60;99.90
41630;DHT22;27322;49.488;8.480;2023-03-01T05:07:15;2.70;99.90
41630;DHT22;27322;49.488;8.480;2023-03-01T05:09:45;2.70;99.90
41630;DHT22;27322;49.488;8.480;2023-03-01T05:12:11;2.70;99.90
41630;DHT22;27322;49.488;8.480;2023-03-01T05:14:37;2.70;99.90
41630;DHT22;27322;49.488;8.480;2023-03-01T05:17:04;2.80;99.90
41630;DHT22;27322;49.488;8.480;2023-03-01T05:19:30;2.80;99.90
41630;DHT22;27322;49.488;8.480;2023-03-01T05:21:57;2.80;99.90
41630;DHT22;27322;49.488;8.480;2023-03-01T05:24:35;2.80;99.90
41630;DHT22;27322;49.488;8.480;2023-03-01T05:27:01;2.80;99.90
41630;DHT22;27322;49.488;8.480;2023-03-01T05:29:28;2.80;99.90
41630;DHT22;27322;49.488;8.480;2023-03-01T05:31:57;2.80;99.90
41630;DHT22;27322;49.488;8.480;2023-03-01T05:34:34;2.80;99.90
41630;DHT22;27322;49.488;8.480;2023-03-01T05:37:00;2.80;99.90
41630;DHT22;27322;49.488;8.480;2023-03-01T05:39:27;2.80;99.90
41630;DHT22;27322;49.488;8.480;2023-03-01T05:41:58;2.80;99.90
41630;DHT22;27322;49.488;8.480;2023-03-01T05:44:24;2.90;99.90
41630;DHT22;27322;49.488;8.480;2023-03-01T05:46:51;2.90;99.90
41630;DHT22;27322;49.488;8.480;2023-03-01T05:49:16;2.90;99.90
41630;DHT22;27322;49.488;8.480;2023-03-01T05:51:47;2.90;99.90
41630;DHT22;27322;49.488;8.480;2023-03-01T05:54:13;2.90;99.90
41630;DHT22;27322;49.488;8.480;2023-03-01T05:56:38;2.90;99.90
41630;DHT22;27322;49.488;8.480;2023-03-01T05:59:04;2.90;99.90
41630;DHT22;27322;49.488;8.480;2023-03-01T06:01:34;2.90;99.90
41630;DHT22;27322;49.488;8.480;2023-03-01T06:04:00;2.90;99.90
41630;DHT22;27322;49.488;8.480;2023-03-01T06:06:26;2.90;99.90
41630;DHT22;27322;49.488;8.480;2023-03-01T06:08:52;3.00;99.90
41630;DHT22;27322;49.488;8.480;2023-03-01T06:11:18;3.00;99.90
41630;DHT22;27322;49.488;8.480;2023-03-01T06:13:44;3.00;99.90
41630;DHT22;27322;49.488;8.480;2023-03-01T06:16:14;3.00;99.90
41630;DHT22;27322;49.488;8.480;2023-03-01T06:18:40;3.00;99.90
41630;DHT22;27322;49.488;8.480;2023-03-01T06:21:07;3.00;99.90
41630;DHT22;27322;49.488;8.480;2023-03-01T06:23:34;3.00;99.90
41630;DHT22;27322;49.488;8.480;2023-03-01T06:26:00;3.00;99.90
41630;DHT22;27322;49.488;8.480;2023-03-01T06:28:26;3.00;99.90
41630;DHT22;27322;49.488;8.480;2023-03-01T06:30:52;3.00;99.90
41630;DHT22;27322;49.488;8.480;2023-03-01T06:33:18;3.10;99.90
41630;DHT22;27322;49.488;8.480;2023-03-01T06:35:46;3.00;99.90
41630;DHT22;27322;49.488;8.480;2023-03-01T06:38:12;3.00;99.90
41630;DHT22;27322;49.488;8.480;2023-03-01T06:40:40;3.00;99.90
41630;DHT22;27322;49.488;8.480;2023-03-01T06:43:06;3.10;99.90
41630;DHT22;27322;49.488;8.480;2023-03-01T06:45:33;3.10;99.90
41630;DHT22;27322;49.488;8.480;2023-03-01T06:48:05;3.10;99.90
41630;DHT22;27322;49.488;8.480;2023-03-01T06:50:32;3.10;99.90
41630;DHT22;27322;49.488;8.480;2023-03-01T06:52:58;3.10;99.90
41630;DHT22;27322;49.488;8.480;2023-03-01T06:55:24;3.10;99.90
41630;DHT22;27322;49.488;8.480;2023-03-01T06:57:57;3.20;99.90
41630;DHT22;27322;49.488;8.480;2023-03-01T07:00:23;3.20;99.90
41630;DHT22;27322;49.488;8.480;2023-03-01T07:02:49;3.20;99.90
41630;DHT22;27322;49.488;8.480;2023-03-01T07:05:15;3.20;99.90
41630;DHT22;27322;49.488;8.480;2023-03-01T07:07:40;3.30;99.90
41630;DHT22;27322;49.488;8.480;2023-03-01T07:10:07;3.30;99.90
41630;DHT22;27322;49.488;8.480;2023-03-01T07:12:32;3.30;99.90
41630;DHT22;27322;49.488;8.480;2023-03-01T07:14:58;3.30;99.90
41630;DHT22;27322;49.488;8.480;2023-03-01T07:17:24;3.40;99.90
41630;DHT22;27322;49.488;8.480;2023-03-01T07:19:49;3.40;99.90
41630;DHT22;27322;49.488;8.480;2023-03-01T07:22:15;3.40;99.90
41630;DHT22;27322;49.488;8.480;2023-03-01T07:24:41;3.40;99.90
41630;DHT22;27322;49.488;8.480;2023-03-01T07:27:07;3.50;99.90
41630;DHT22;27322;49.488;8.480;2023-03-01T07:29:32;3.50;99.90
41630;DHT22;27322;49.488;8.480;2023-03-01T07:31:58;3.50;99.90
41630;DHT22;27322;49.488;8.480;2023-03-01T07:34:24;3.50;99.90
41630;DHT22;27322;49.488;8.480;2023-03-01T07:36:49;3.50;99.90
41630;DHT22;27322;49.488;8.480;2023-03-01T07:39:15;3.50;99.90
41630;DHT22;27322;49.488;8.480;2023-03-01T07:41:41;3.50;99.90
41630;DHT22;27322;49.488;8.480;2023-03-01T07:44:06;3.50;99.90
41630;DHT22;27322;49.488;8.480;2023-03-01T07:46:32;3.60;99.90
41630;DHT22;27322;49.488;8.480;2023-03-01T07:48:58;3.60;99.90
41630;DHT22;27322;49.488;8.480;2023-03-01T07:51:23;3.60;99.90
41630;DHT22;27322;49.488;8.480;2023-03-01T07:53:49;3.60;99.90
41630;DHT22;27322;49.488;8.480;2023-03-01T07:56:15;3.70;99.90
41630;DHT22;27322;49.488;8.480;2023-03-01T07:58:45;3.70;99.90
41630;DHT22;27322;49.488;8.480;2023-03-01T08:01:13;3.70;99.90
41630;DHT22;27322;49.488;8.480;2023-03-01T08:03:40;3.70;99.90
41630;DHT22;27322;49.488;8.480;2023-03-01T08:06:08;3.80;99.90
41630;DHT22;27322;49.488;8.480;2023-03-01T08:08:34;3.80;99.90
41630;DHT22;27322;49.488;8.480;2023-03-01T08:11:00;3.80;99.90
41630;DHT22;27322;49.488;8.480;2023-03-01T08:13:26;3.90;99.90
41630;DHT22;27322;49.488;8.480;2023-03-01T08:15:52;3.90;99.80
41630;DHT22;27322;49.488;8.480;2023-03-01T08:18:19;3.90;99.90
41630;DHT22;27322;49.488;8.480;2023-03-01T08:20:45;4.00;99.90
41630;DHT22;27322;49.488;8.480;2023-03-01T08:23:11;4.00;99.50
41630;DHT22;27322;49.488;8.480;2023-03-01T08:25:37;4.10;99.70
41630;DHT22;27322;49.488;8.480;2023-03-01T08:28:03;4.10;99.60
41630;DHT22;27322;49.488;8.480;2023-03-01T08:30:29;4.20;99.40
41630;DHT22;27322;49.488;8.480;2023-03-01T08:32:55;4.20;99.20
41630;DHT22;27322;49.488;8.480;2023-03-01T08:35:21;4.20;99.20
41630;DHT22;27322;49.488;8.480;2023-03-01T08:37:46;4.30;99.20
41630;DHT22;27322;49.488;8.480;2023-03-01T08:40:13;4.30;99.30
41630;DHT22;27322;49.488;8.480;2023-03-01T08:42:40;4.30;99.10
41630;DHT22;27322;49.488;8.480;2023-03-01T08:45:07;4.40;98.70
41630;DHT22;27322;49.488;8.480;2023-03-01T08:47:33;4.40;97.80
41630;DHT22;27322;49.488;8.480;2023-03-01T08:49:59;4.50;98.50
41630;DHT22;27322;49.488;8.480;2023-03-01T08:52:25;4.50;98.20
41630;DHT22;27322;49.488;8.480;2023-03-01T08:54:52;4.50;98.30
41630;DHT22;27322;49.488;8.480;2023-03-01T08:57:18;4.60;98.40
41630;DHT22;27322;49.488;8.480;2023-03-01T08:59:43;4.60;97.90
41630;DHT22;27322;49.488;8.480;2023-03-01T09:02:16;4.60;97.80
41630;DHT22;27322;49.488;8.480;2023-03-01T09:04:43;4.60;97.80
41630;DHT22;27322;49.488;8.480;2023-03-01T09:07:09;4.70;98.20
41630;DHT22;27322;49.488;8.480;2023-03-01T09:09:35;4.70;98.30
41630;DHT22;27322;49.488;8.480;2023-03-01T09:12:02;4.70;97.50
41630;DHT22;27322;49.488;8.480;2023-03-01T09:14:28;4.70;97.30
41630;DHT22;27322;49.488;8.480;2023-03-01T09:16:53;4.70;97.30
41630;DHT22;27322;49.488;8.480;2023-03-01T09:19:19;4.80;97.80
41630;DHT22;27322;49.488;8.480;2023-03-01T09:21:44;4.80;97.40
41630;DHT22;27322;49.488;8.480;2023-03-01T09:24:18;4.90;97.30
41630;DHT22;27322;49.488;8.480;2023-03-01T09:26:44;4.90;97.60
41630;DHT22;27322;49.488;8.480;2023-03-01T09:29:14;4.90;97.50
41630;DHT22;27322;49.488;8.480;2023-03-01T09:31:40;5.00;97.60
41630;DHT22;27322;49.488;8.480;2023-03-01T09:34:06;5.00;97.10
41630;DHT22;27322;49.488;8.480;2023-03-01T09:36:32;5.10;97.50
41630;DHT22;27322;49.488;8.480;2023-03-01T09:38:59;5.10;97.30
41630;DHT22;27322;49.488;8.480;2023-03-01T09:46:56;5.30;96.80
41630;DHT22;27322;49.488;8.480;2023-03-01T09:49:25;5.30;96.30
41630;DHT22;27322;49.488;8.480;2023-03-01T09:54:26;5.40;96.10
41630;DHT22;27322;49.488;8.480;2023-03-01T09:59:48;5.50;96.00
41630;DHT22;27322;49.488;8.480;2023-03-01T10:02:33;5.50;95.90
41630;DHT22;27322;49.488;8.480;2023-03-01T10:08:26;5.70;95.40
41630;DHT22;27322;49.488;8.480;2023-03-01T10:10:53;5.70;95.30
41630;DHT22;27322;49.488;8.480;2023-03-01T10:13:20;5.80;94.80
41630;DHT22;27322;49.488;8.480;2023-03-01T10:16:11;5.90;94.40
41630;DHT22;27322;49.488;8.480;2023-03-01T10:18:39;6.00;94.40
41630;DHT22;27322;49.488;8.480;2023-03-01T10:21:16;6.10;94.30
41630;DHT22;27322;49.488;8.480;2023-03-01T10:23:43;6.30;94.10
41630;DHT22;27322;49.488;8.480;2023-03-01T10:29:11;6.90;91.60
41630;DHT22;27322;49.488;8.480;2023-03-01T10:31:45;7.30;91.00
41630;DHT22;27322;49.488;8.480;2023-03-01T10:34:12;7.50;90.10
41630;DHT22;27322;49.488;8.480;2023-03-01T10:36:39;7.70;86.80
41630;DHT22;27322;49.488;8.480;2023-03-01T10:39:13;7.90;86.60
41630;DHT22;27322;49.488;8.480;2023-03-01T10:42:19;8.10;85.60
41630;DHT22;27322;49.488;8.480;2023-03-01T10:44:46;8.30;84.70
41630;DHT22;27322;49.488;8.480;2023-03-01T10:47:24;8.40;85.20
41630;DHT22;27322;49.488;8.480;2023-03-01T10:49:53;8.40;84.80
41630;DHT22;27322;49.488;8.480;2023-03-01T10:52:23;8.20;83.40
41630;DHT22;27322;49.488;8.480;2023-03-01T10:54:58;8.10;84.00
41630;DHT22;27322;49.488;8.480;2023-03-01T10:57:33;8.00;84.90
41630;DHT22;27322;49.488;8.480;2023-03-01T11:00:23;7.90;84.80
41630;DHT22;27322;49.488;8.480;2023-03-01T11:05:25;7.80;84.00
41630;DHT22;27322;49.488;8.480;2023-03-01T11:07:53;7.80;83.50
41630;DHT22;27322;49.488;8.480;2023-03-01T11:10:23;7.70;84.30
41630;DHT22;27322;49.488;8.480;2023-03-01T11:12:51;7.80;85.50
41630;DHT22;27322;49.488;8.480;2023-03-01T11:15:24;7.80;85.10
41630;DHT22;27322;49.488;8.480;2023-03-01T11:17:50;7.80;85.10
41630;DHT22;27322;49.488;8.480;2023-03-01T11:20:33;7.90;84.30
41630;DHT22;27322;49.488;8.480;2023-03-01T11:23:03;7.90;85.10
41630;DHT22;27322;49.488;8.480;2023-03-01T11:25:42;8.00;83.60
41630;DHT22;27322;49.488;8.480;2023-03-01T11:28:12;8.10;84.10
41630;DHT22;27322;49.488;8.480;2023-03-01T11:30:56;8.20;82.90
41630;DHT22;27322;49.488;8.480;2023-03-01T11:36:34;8.40;82.70
41630;DHT22;27322;49.488;8.480;2023-03-01T11:41:39;8.70;81.10
41630;DHT22;27322;49.488;8.480;2023-03-01T11:44:28;8.70;80.10
41630;DHT22;27322;49.488;8.480;2023-03-01T11:55:07;8.40;80.20
41630;DHT22;27322;49.488;8.480;2023-03-01T12:10:47;7.90;82.40
41630;DHT22;27322;49.488;8.480;2023-03-01T12:13:27;7.80;81.20
41630;DHT22;27322;49.488;8.480;2023-03-01T12:29:42;7.70;83.70
41630;DHT22;27322;49.488;8.480;2023-03-01T12:44:02;7.70;83.60
41630;DHT22;27322;49.488;8.480;2023-03-01T12:47:07;7.70;84.40
41630;DHT22;27322;49.488;8.480;2023-03-01T12:52:36;7.70;84.30
41630;DHT22;27322;49.488;8.480;2023-03-01T12:55:18;7.70;83.30
41630;DHT22;27322;49.488;8.480;2023-03-01T12:57:50;7.70;84.40
41630;DHT22;27322;49.488;8.480;2023-03-01T13:03:28;7.70;83.20
41630;DHT22;27322;49.488;8.480;2023-03-01T13:11:21;7.80;83.20
41630;DHT22;27322;49.488;8.480;2023-03-01T13:13:47;7.80;82.00
41630;DHT22;27322;49.488;8.480;2023-03-01T13:21:46;7.80;83.10
41630;DHT22;27322;49.488;8.480;2023-03-01T13:27:23;7.80;83.10
41630;DHT22;27322;49.488;8.480;2023-03-01T13:29:59;7.80;83.20
41630;DHT22;27322;49.488;8.480;2023-03-01T13:32:35;7.80;83.20
41630;DHT22;27322;49.488;8.480;2023-03-01T13:37:43;7.80;84.00
41630;DHT22;27322;49.488;8.480;2023-03-01T13:42:48;8.00;83.10
41630;DHT22;27322;49.488;8.480;2023-03-01T13:48:16;8.00;82.60
41630;DHT22;27322;49.488;8.480;2023-03-01T13:51:08;8.00;81.90
41630;DHT22;27322;49.488;8.480;2023-03-01T13:53:38;8.00;81.80
41630;DHT22;27322;49.488;8.480;2023-03-01T13:56:21;8.00;81.20
41630;DHT22;27322;49.488;8.480;2023-03-01T13:59:04;8.10;82.10
41630;DHT22;27322;49.488;8.480;2023-03-01T14:01:33;8.10;81.40
41630;DHT22;27322;49.488;8.480;2023-03-01T14:04:01;8.20;81.00
41630;DHT22;27322;49.488;8.480;2023-03-01T14:06:32;8.40;81.30
41630;DHT22;27322;49.488;8.480;2023-03-01T14:20:07;10.70;73.50
41630;DHT22;27322;49.488;8.480;2023-03-01T14:22:34;10.60;72.80
41630;DHT22;27322;49.488;8.480;2023-03-01T14:25:03;10.50;72.10
41630;DHT22;27322;49.488;8.480;2023-03-01T14:27:37;10.60;71.70
41630;DHT22;27322;49.488;8.480;2023-03-01T14:30:15;10.50;70.70
41630;DHT22;27322;49.488;8.480;2023-03-01T14:32:43;10.50;70.40
41630;DHT22;27322;49.488;8.480;2023-03-01T14:35:32;10.30;71.00
41630;DHT22;27322;49.488;8.480;2023-03-01T14:37:58;9.90;71.70
41630;DHT22;27322;49.488;8.480;2023-03-01T14:40:35;9.70;72.20
41630;DHT22;27322;49.488;8.480;2023-03-01T14:43:10;9.40;73.40
41630;DHT22;27322;49.488;8.480;2023-03-01T14:45:36;9.30;73.30
41630;DHT22;27322;49.488;8.480;2023-03-01T14:48:04;9.10;74.00
41630;DHT22;27322;49.488;8.480;2023-03-01T14:50:36;9.00;74.60
41630;DHT22;27322;49.488;8.480;2023-03-01T14:53:06;9.00;73.70
41630;DHT22;27322;49.488;8.480;2023-03-01T14:55:42;8.90;74.20
41630;DHT22;27322;49.488;8.480;2023-03-01T14:58:13;8.80;74.60
41630;DHT22;27322;49.488;8.480;2023-03-01T15:00:40;8.80;75.70
41630;DHT22;27322;49.488;8.480;2023-03-01T15:03:17;8.70;75.70
41630;DHT22;27322;49.488;8.480;2023-03-01T15:05:45;8.70;75.80
41630;DHT22;27322;49.488;8.480;2023-03-01T15:08:19;8.70;76.30
41630;DHT22;27322;49.488;8.480;2023-03-01T15:11:17;8.60;77.10
41630;DHT22;27322;49.488;8.480;2023-03-01T15:13:42;8.60;78.50
41630;DHT22;27322;49.488;8.480;2023-03-01T15:18:34;8.60;77.00
41630;DHT22;27322;49.488;8.480;2023-03-01T15:21:13;8.60;77.10
41630;DHT22;27322;49.488;8.480;2023-03-01T15:23:40;8.50;77.30
41630;DHT22;27322;49.488;8.480;2023-03-01T15:26:06;8.50;77.00
41630;DHT22;27322;49.488;8.480;2023-03-01T15:28:41;8.50;77.10
41630;DHT22;27322;49.488;8.480;2023-03-01T15:31:36;8.50;78.00
41630;DHT22;27322;49.488;8.480;2023-03-01T15:34:31;8.50;77.70
41630;DHT22;27322;49.488;8.480;2023-03-01T15:36:59;8.50;78.00
41630;DHT22;27322;49.488;8.480;2023-03-01T15:39:42;8.50;78.50
41630;DHT22;27322;49.488;8.480;2023-03-01T15:47:48;8.50;77.10
41630;DHT22;27322;49.488;8.480;2023-03-01T15:50:36;8.50;76.60
41630;DHT22;27322;49.488;8.480;2023-03-01T15:53:09;8.50;77.60
41630;DHT22;27322;49.488;8.480;2023-03-01T15:55:36;8.40;77.90
41630;DHT22;27322;49.488;8.480;2023-03-01T16:00:41;8.40;77.80
41630;DHT22;27322;49.488;8.480;2023-03-01T16:03:07;8.40;79.00
41630;DHT22;27322;49.488;8.480;2023-03-01T16:05:36;8.40;79.60
41630;DHT22;27322;49.488;8.480;2023-03-01T16:08:02;8.40;79.20
41630;DHT22;27322;49.488;8.480;2023-03-01T16:10:29;8.40;79.50
41630;DHT22;27322;49.488;8.480;2023-03-01T16:12:55;8.40;79.80
41630;DHT22;27322;49.488;8.480;2023-03-01T16:17:48;8.30;80.10
41630;DHT22;27322;49.488;8.480;2023-03-01T16:20:14;8.30;79.80
41630;DHT22;27322;49.488;8.480;2023-03-01T16:22:43;8.30;79.50
41630;DHT22;27322;49.488;8.480;2023-03-01T16:25:14;8.30;79.00
41630;DHT22;27322;49.488;8.480;2023-03-01T16:27:47;8.30;79.00
41630;DHT22;27322;49.488;8.480;2023-03-01T16:30:15;8.30;79.30
41630;DHT22;27322;49.488;8.480;2023-03-01T16:32:42;8.30;80.30
41630;DHT22;27322;49.488;8.480;2023-03-01T16:35:11;8.30;80.70
41630;DHT22;27322;49.488;8.480;2023-03-01T16:37:37;8.20;81.40
41630;DHT22;27322;49.488;8.480;2023-03-01T16:40:04;8.20;81.70
41630;DHT22;27322;49.488;8.480;2023-03-01T16:42:36;8.20;81.50
41630;DHT22;27322;49.488;8.480;2023-03-01T16:45:03;8.20;81.30
41630;DHT22;27322;49.488;8.480;2023-03-01T16:47:29;8.20;80.90
41630;DHT22;27322;49.488;8.480;2023-03-01T16:49:55;8.20;81.40
41630;DHT22;27322;49.488;8.480;2023-03-01T16:52:22;8.20;81.60
41630;DHT22;27322;49.488;8.480;2023-03-01T16:54:48;8.20;82.00
41630;DHT22;27322;49.488;8.480;2023-03-01T16:57:14;8.20;81.60
41630;DHT22;27322;49.488;8.480;2023-03-01T16:59:40;8.20;82.00
41630;DHT22;27322;49.488;8.480;2023-03-01T17:02:08;8.20;81.80
41630;DHT22;27322;49.488;8.480;2023-03-01T17:04:36;8.20;82.40
41630;DHT22;27322;49.488;8.480;2023-03-01T17:07:02;8.20;82.90
41630;DHT22;27322;49.488;8.480;2023-03-01T17:09:28;8.10;83.90
41630;DHT22;27322;49.488;8.480;2023-03-01T17:11:53;8.10;83.70
41630;DHT22;27322;49.488;8.480;2023-03-01T17:14:19;8.10;83.60
41630;DHT22;27322;49.488;8.480;2023-03-01T17:16:45;8.10;84.00
41630;DHT22;27322;49.488;8.480;2023-03-01T17:19:11;8.10;84.10
41630;DHT22;27322;49.488;8.480;2023-03-01T17:21:43;8.00;84.50
41630;DHT22;27322;49.488;8.480;2023-03-01T17:24:10;8.00;85.30
41630;DHT22;27322;49.488;8.480;2023-03-01T17:26:36;8.00;86.20
41630;DHT22;27322;49.488;8.480;2023-03-01T17:29:02;8.00;85.90
41630;DHT22;27322;49.488;8.480;2023-03-01T17:31:29;8.00;86.20
41630;DHT22;27322;49.488;8.480;2023-03-01T17:33:55;7.90;86.00
41630;DHT22;27322;49.488;8.480;2023-03-01T17:36:21;8.00;86.10
41630;DHT22;27322;49.488;8.480;2023-03-01T17:38:47;7.90;86.70
41630;DHT22;27322;49.488;8.480;2023-03-01T17:41:13;7.90;86.30
41630;DHT22;27322;49.488;8.480;2023-03-01T17:43:42;7.90;86.00
41630;DHT22;27322;49.488;8.480;2023-03-01T17:46:07;7.90;85.00
41630;DHT22;27322;49.488;8.480;2023-03-01T17:48:34;7.90;85.20
41630;DHT22;27322;49.488;8.480;2023-03-01T17:51:00;7.90;85.70
41630;DHT22;27322;49.488;8.480;2023-03-01T17:53:29;7.90;86.60
41630;DHT22;27322;49.488;8.480;2023-03-01T17:56:00;7.90;87.50
41630;DHT22;27322;49.488;8.480;2023-03-01T17:58:25;7.90;87.80
41630;DHT22;27322;49.488;8.480;2023-03-01T18:00:51;7.80;86.50
41630;DHT22;27322;49.488;8.480;2023-03-01T18:03:17;7.80;86.80
41630;DHT22;27322;49.488;8.480;2023-03-01T18:05:42;7.80;87.20
41630;DHT22;27322;49.488;8.480;2023-03-01T18:08:08;7.80;87.10